createdAt,value
2017-06-14T00:00:57.753Z,0
2017-06-14T00:02:10.531Z,0
2017-06-14T00:03:22.821Z,0
2017-06-14T00:04:35.593Z,0
2017-06-14T00:05:47.884Z,0
2017-06-14T00:07:00.659Z,0
2017-06-14T00:08:12.954Z,0
2017-06-14T00:09:25.250Z,0
2017-06-14T00:10:38.023Z,0
2017-06-14T00:11:50.797Z,0
2017-06-14T00:13:03.569Z,0
2017-06-14T00:14:16.548Z,0
2017-06-14T00:15:29.321Z,0
2017-06-14T00:16:42.096Z,0
2017-06-14T00:17:54.866Z,0
2017-06-14T00:19:07.640Z,0
2017-06-14T00:20:20.417Z,0
2017-06-14T00:21:32.712Z,0
2017-06-14T00:22:45.489Z,0
2017-06-14T00:23:57.783Z,0
2017-06-14T00:25:10.555Z,0
2017-06-14T00:26:23.329Z,0
2017-06-14T00:27:36.101Z,0
2017-06-14T00:28:48.875Z,0
2017-06-14T00:30:01.165Z,0
2017-06-14T00:31:13.938Z,0
2017-06-14T00:32:26.708Z,0
2017-06-14T00:33:38.997Z,0
2017-06-14T00:34:51.773Z,0
2017-06-14T00:36:04.546Z,0
2017-06-14T00:37:17.323Z,0
2017-06-14T00:38:30.097Z,0
2017-06-14T00:39:42.880Z,0
2017-06-14T00:40:55.376Z,0
2017-06-14T00:42:07.670Z,0
2017-06-14T00:43:20.443Z,0
2017-06-14T00:44:33.219Z,0
2017-06-14T00:45:45.991Z,0
2017-06-14T00:46:58.482Z,0
2017-06-14T00:48:10.771Z,0
2017-06-14T00:49:23.543Z,0
2017-06-14T00:50:36.313Z,0
2017-06-14T00:51:49.087Z,0
2017-06-14T00:53:01.860Z,0
2017-06-14T00:54:14.151Z,0
2017-06-14T00:55:26.926Z,0
2017-06-14T00:56:39.698Z,0
2017-06-14T00:57:52.470Z,0
2017-06-14T00:59:04.765Z,0
2017-06-14T01:00:17.057Z,0
2017-06-14T01:01:29.829Z,0
2017-06-14T01:02:42.123Z,0
2017-06-14T01:03:54.896Z,0
2017-06-14T01:05:07.677Z,0
2017-06-14T01:06:19.982Z,0
2017-06-14T01:07:31.795Z,0
2017-06-14T01:08:44.566Z,0
2017-06-14T01:09:56.857Z,0
2017-06-14T01:11:09.658Z,0
2017-06-14T01:12:25.948Z,0
2017-06-14T01:13:38.894Z,0
2017-06-14T01:14:51.789Z,0
2017-06-14T01:16:04.199Z,0
2017-06-14T01:17:17.093Z,0
2017-06-14T01:18:29.986Z,0
2017-06-14T01:19:43.074Z,0
2017-06-14T01:20:55.962Z,0
2017-06-14T01:22:08.851Z,0
2017-06-14T01:23:21.748Z,0
2017-06-14T01:24:34.637Z,0
2017-06-14T01:25:47.041Z,0
2017-06-14T01:26:59.445Z,0
2017-06-14T01:28:12.336Z,0
2017-06-14T01:29:24.734Z,0
2017-06-14T01:30:37.629Z,0
2017-06-14T01:31:50.519Z,0
2017-06-14T01:33:02.925Z,0
2017-06-14T01:34:15.320Z,0
2017-06-14T01:35:27.921Z,0
2017-06-14T01:36:40.812Z,0
2017-06-14T01:37:53.703Z,0
2017-06-14T01:39:06.107Z,0
2017-06-14T01:40:18.509Z,0
2017-06-14T01:41:31.605Z,0
2017-06-14T01:42:44.497Z,0
2017-06-14T01:43:57.388Z,0
2017-06-14T01:45:10.282Z,0
2017-06-14T01:46:22.891Z,0
2017-06-14T01:47:35.784Z,0
2017-06-14T01:48:48.677Z,0
2017-06-14T01:50:01.076Z,0
2017-06-14T01:51:13.971Z,0
2017-06-14T01:52:26.863Z,0
2017-06-14T01:53:39.757Z,0
2017-06-14T01:54:52.643Z,0
2017-06-14T01:56:05.535Z,0
2017-06-14T01:57:18.429Z,0
2017-06-14T01:58:30.831Z,0
2017-06-14T01:59:43.723Z,0
2017-06-14T02:00:56.618Z,0
2017-06-14T02:02:09.020Z,0
2017-06-14T02:03:22.114Z,0
2017-06-14T02:04:35.008Z,0
2017-06-14T02:05:47.897Z,0
2017-06-14T02:07:00.788Z,0
2017-06-14T02:08:13.681Z,0
2017-06-14T02:09:26.572Z,0
2017-06-14T02:10:39.463Z,0
2017-06-14T02:11:51.867Z,0
2017-06-14T02:13:04.272Z,0
2017-06-14T02:14:17.165Z,0
2017-06-14T02:15:30.059Z,0
2017-06-14T02:16:42.460Z,0
2017-06-14T02:17:54.861Z,0
2017-06-14T02:19:07.701Z,0
2017-06-14T02:20:20.653Z,0
2017-06-14T02:21:33.552Z,0
2017-06-14T02:22:45.958Z,0
2017-06-14T02:23:58.856Z,0
2017-06-14T02:25:11.262Z,0
2017-06-14T02:26:24.160Z,0
2017-06-14T02:27:37.058Z,0
2017-06-14T02:28:49.954Z,0
2017-06-14T02:30:02.358Z,0
2017-06-14T02:31:15.257Z,0
2017-06-14T02:32:28.159Z,0
2017-06-14T02:33:41.060Z,0
2017-06-14T02:34:53.981Z,0
2017-06-14T02:36:06.871Z,0
2017-06-14T02:37:19.762Z,0
2017-06-14T02:38:32.161Z,0
2017-06-14T02:39:44.560Z,0
2017-06-14T02:42:24.401Z,0
2017-06-14T02:43:37.297Z,0
2017-06-14T02:44:50.197Z,0
2017-06-14T02:46:03.296Z,0
2017-06-14T02:47:15.704Z,0
2017-06-14T02:48:28.111Z,0
2017-06-14T02:49:41.005Z,0
2017-06-14T02:50:53.893Z,0
2017-06-14T02:52:06.498Z,0
2017-06-14T02:53:19.389Z,0
2017-06-14T02:54:31.795Z,0
2017-06-14T02:55:44.688Z,0
2017-06-14T02:56:57.779Z,0
2017-06-14T02:58:10.675Z,0
2017-06-14T02:59:23.079Z,0
2017-06-14T03:00:35.974Z,0
2017-06-14T03:01:48.869Z,0
2017-06-14T03:03:01.963Z,0
2017-06-14T03:04:14.366Z,0
2017-06-14T03:05:27.253Z,0
2017-06-14T03:06:40.148Z,0
2017-06-14T03:07:53.040Z,0
2017-06-14T03:09:05.444Z,0
2017-06-14T03:10:17.852Z,0
2017-06-14T03:11:30.259Z,0
2017-06-14T03:12:43.154Z,0
2017-06-14T03:13:56.048Z,0
2017-06-14T03:15:08.454Z,0
2017-06-14T03:16:21.346Z,0
2017-06-14T03:17:33.753Z,0
2017-06-14T03:18:46.157Z,0
2017-06-14T03:19:59.052Z,0
2017-06-14T03:21:11.457Z,0
2017-06-14T03:22:24.350Z,0
2017-06-14T03:23:37.249Z,0
2017-06-14T03:24:50.343Z,0
2017-06-14T03:26:03.231Z,0
2017-06-14T03:27:15.635Z,0
2017-06-14T03:28:28.058Z,0
2017-06-14T03:29:41.176Z,0
2017-06-14T03:30:54.089Z,0
2017-06-14T03:32:07.000Z,0
2017-06-14T03:33:19.426Z,0
2017-06-14T03:34:32.367Z,0
2017-06-14T03:35:44.987Z,0
2017-06-14T03:36:57.897Z,0
2017-06-14T03:38:10.320Z,0
2017-06-14T03:39:23.229Z,0
2017-06-14T03:40:35.849Z,0
2017-06-14T03:41:48.759Z,0
2017-06-14T03:43:01.669Z,0
2017-06-14T03:44:14.585Z,0
2017-06-14T03:45:27.496Z,0
2017-06-14T03:46:40.613Z,0
2017-06-14T03:47:53.534Z,0
2017-06-14T03:49:05.954Z,0
2017-06-14T03:50:18.378Z,0
2017-06-14T03:51:31.492Z,0
2017-06-14T03:52:44.475Z,0
2017-06-14T03:53:57.472Z,0
2017-06-14T03:55:10.500Z,0
2017-06-14T03:56:23.494Z,0
2017-06-14T03:57:36.488Z,0
2017-06-14T03:58:49.476Z,0
2017-06-14T04:00:02.463Z,0
2017-06-14T04:01:14.958Z,0
2017-06-14T04:02:28.148Z,0
2017-06-14T04:03:41.142Z,0
2017-06-14T04:04:54.134Z,0
2017-06-14T04:06:07.127Z,0
2017-06-14T04:07:20.133Z,0
2017-06-14T04:08:33.324Z,0
2017-06-14T04:09:46.312Z,0
2017-06-14T04:10:59.302Z,0
2017-06-14T04:12:12.294Z,0
2017-06-14T04:13:24.873Z,0
2017-06-14T04:14:37.243Z,0
2017-06-14T04:15:50.102Z,0
2017-06-14T04:17:01.990Z,0
2017-06-14T04:18:14.847Z,0
2017-06-14T04:19:27.701Z,0
2017-06-14T04:20:40.558Z,0
2017-06-14T04:21:53.430Z,0
2017-06-14T04:23:06.287Z,0
2017-06-14T04:24:19.340Z,0
2017-06-14T04:25:32.128Z,0
2017-06-14T04:26:44.418Z,0
2017-06-14T04:27:57.189Z,0
2017-06-14T04:29:09.961Z,0
2017-06-14T04:30:22.737Z,0
2017-06-14T04:31:35.031Z,0
2017-06-14T04:32:46.845Z,0
2017-06-14T04:33:59.136Z,0
2017-06-14T04:35:11.436Z,0
2017-06-14T04:36:24.211Z,0
2017-06-14T04:37:36.981Z,0
2017-06-14T04:38:49.752Z,0
2017-06-14T04:40:02.523Z,0
2017-06-14T04:41:14.814Z,0
2017-06-14T04:42:27.586Z,0
2017-06-14T04:43:40.359Z,0
2017-06-14T04:44:53.157Z,0
2017-06-14T04:46:06.132Z,0
2017-06-14T04:47:18.917Z,0
2017-06-14T04:48:31.207Z,0
2017-06-14T04:49:43.987Z,0
2017-06-14T04:50:56.764Z,0
2017-06-14T04:52:09.737Z,0
2017-06-14T04:53:22.026Z,0
2017-06-14T04:54:34.798Z,0
2017-06-14T04:55:47.595Z,0
2017-06-14T04:56:59.887Z,0
2017-06-14T04:58:12.669Z,0
2017-06-14T04:59:24.960Z,0
2017-06-14T05:00:37.733Z,0
2017-06-14T05:01:50.508Z,0
2017-06-14T05:03:03.483Z,0
2017-06-14T05:04:16.262Z,0
2017-06-14T05:05:28.565Z,0
2017-06-14T05:06:41.361Z,0
2017-06-14T05:07:54.336Z,0
2017-06-14T05:09:07.108Z,0
2017-06-14T05:10:19.895Z,0
2017-06-14T05:11:31.707Z,0
2017-06-14T05:12:44.523Z,0
2017-06-14T05:13:56.535Z,0
2017-06-14T05:15:08.350Z,0
2017-06-14T05:16:21.125Z,0
2017-06-14T05:17:33.898Z,0
2017-06-14T05:18:46.670Z,0
2017-06-14T05:19:59.441Z,0
2017-06-14T05:21:11.734Z,0
2017-06-14T05:22:24.507Z,0
2017-06-14T05:23:37.281Z,0
2017-06-14T05:24:50.054Z,0
2017-06-14T05:26:02.829Z,0
2017-06-14T05:27:15.602Z,0
2017-06-14T05:28:28.379Z,0
2017-06-14T05:29:40.872Z,0
2017-06-14T05:30:53.169Z,0
2017-06-14T05:32:05.945Z,0
2017-06-14T05:33:18.720Z,0
2017-06-14T05:34:31.013Z,0
2017-06-14T05:35:43.986Z,0
2017-06-14T05:36:56.278Z,0
2017-06-14T05:38:08.572Z,0
2017-06-14T05:39:21.343Z,0
2017-06-14T05:40:34.117Z,0
2017-06-14T05:41:46.897Z,0
2017-06-14T05:42:59.315Z,0
2017-06-14T05:44:12.226Z,0
2017-06-14T05:45:24.646Z,0
2017-06-14T05:46:37.754Z,0
2017-06-14T05:47:50.663Z,0
2017-06-14T05:49:03.572Z,0
2017-06-14T05:50:16.483Z,0
2017-06-14T05:51:29.394Z,0
2017-06-14T05:52:42.305Z,0
2017-06-14T05:53:55.227Z,0
2017-06-14T05:55:07.648Z,0
2017-06-14T05:56:20.069Z,0
2017-06-14T05:57:32.492Z,0
2017-06-14T05:58:45.404Z,0
2017-06-14T05:59:57.823Z,0
2017-06-14T06:01:10.738Z,0
2017-06-14T06:02:23.159Z,0
2017-06-14T06:03:36.069Z,0
2017-06-14T06:04:48.983Z,0
2017-06-14T06:06:01.895Z,0
2017-06-14T06:07:14.808Z,0
2017-06-14T06:08:27.917Z,0
2017-06-14T06:09:40.829Z,0
2017-06-14T06:10:53.741Z,0
2017-06-14T06:12:06.653Z,0
2017-06-14T06:13:19.076Z,0
2017-06-14T06:14:31.985Z,0
2017-06-14T06:15:44.894Z,0
2017-06-14T06:16:57.806Z,0
2017-06-14T06:18:10.716Z,0
2017-06-14T06:19:23.631Z,0
2017-06-14T06:20:36.544Z,0
2017-06-14T06:21:48.968Z,0
2017-06-14T06:23:01.882Z,0
2017-06-14T06:24:14.309Z,0
2017-06-14T06:25:26.729Z,0
2017-06-14T06:26:39.642Z,0
2017-06-14T06:27:52.544Z,0
2017-06-14T06:29:05.438Z,0
2017-06-14T06:30:17.349Z,0
2017-06-14T06:31:29.866Z,0
2017-06-14T06:32:42.902Z,0
2017-06-14T06:33:55.938Z,0
2017-06-14T06:35:08.978Z,0
2017-06-14T06:36:22.011Z,0
2017-06-14T06:37:35.045Z,0
2017-06-14T06:38:48.039Z,0
2017-06-14T06:40:00.525Z,0
2017-06-14T06:41:13.205Z,0
2017-06-14T06:42:26.179Z,0
2017-06-14T06:43:38.655Z,0
2017-06-14T06:44:51.132Z,0
2017-06-14T06:46:04.107Z,0
2017-06-14T06:47:17.101Z,0
2017-06-14T06:48:30.082Z,0
2017-06-14T06:49:42.562Z,0
2017-06-14T06:50:55.539Z,0
2017-06-14T06:52:08.223Z,0
2017-06-14T06:53:21.196Z,0
2017-06-14T06:54:34.174Z,0
2017-06-14T06:55:47.152Z,0
2017-06-14T06:57:00.328Z,0
2017-06-14T06:58:13.305Z,0
2017-06-14T06:59:26.286Z,0
2017-06-14T07:00:39.260Z,0
2017-06-14T07:01:52.243Z,0
2017-06-14T07:03:04.723Z,0
2017-06-14T07:04:17.726Z,0
2017-06-14T07:05:30.208Z,0
2017-06-14T07:06:43.182Z,0
2017-06-14T07:07:55.863Z,0
2017-06-14T07:09:08.343Z,0
2017-06-14T07:10:21.317Z,0
2017-06-14T07:11:34.333Z,0
2017-06-14T07:12:47.334Z,0
2017-06-14T07:13:59.531Z,0
2017-06-14T07:15:12.025Z,0
2017-06-14T07:16:24.519Z,0
2017-06-14T07:17:37.441Z,0
2017-06-14T07:18:50.559Z,0
2017-06-14T07:20:02.974Z,0
2017-06-14T07:21:15.889Z,0
2017-06-14T07:22:28.307Z,0
2017-06-14T07:23:41.251Z,0
2017-06-14T07:24:53.872Z,0
2017-06-14T07:26:06.786Z,0
2017-06-14T07:27:18.716Z,0
2017-06-14T07:28:31.626Z,0
2017-06-14T07:29:44.245Z,0
2017-06-14T07:30:56.666Z,0
2017-06-14T07:32:09.579Z,0
2017-06-14T07:33:22.490Z,0
2017-06-14T07:34:34.908Z,0
2017-06-14T07:35:48.015Z,0
2017-06-14T07:37:00.925Z,0
2017-06-14T07:38:13.345Z,0
2017-06-14T07:39:26.258Z,0
2017-06-14T07:40:39.177Z,0
2017-06-14T07:41:52.086Z,0
2017-06-14T07:43:04.014Z,0
2017-06-14T07:44:16.432Z,0
2017-06-14T07:45:29.342Z,0
2017-06-14T07:46:42.453Z,0
2017-06-14T07:47:55.366Z,0
2017-06-14T07:49:08.278Z,0
2017-06-14T07:50:21.311Z,0
2017-06-14T07:51:33.865Z,0
2017-06-14T07:52:46.928Z,0
2017-06-14T07:53:59.480Z,0
2017-06-14T07:55:12.031Z,0
2017-06-14T07:56:24.580Z,0
2017-06-14T07:57:37.113Z,0
2017-06-14T07:58:50.145Z,0
2017-06-14T08:00:03.186Z,0
2017-06-14T08:01:16.227Z,0
2017-06-14T08:02:29.264Z,0
2017-06-14T08:03:42.295Z,0
2017-06-14T08:04:54.330Z,0
2017-06-14T08:06:06.366Z,0
2017-06-14T08:07:19.407Z,0
2017-06-14T08:08:32.441Z,0
2017-06-14T08:09:45.478Z,0
2017-06-14T08:10:58.009Z,0
2017-06-14T08:12:11.055Z,0
2017-06-14T08:13:24.290Z,0
2017-06-14T08:14:37.322Z,0
2017-06-14T08:15:50.355Z,0
2017-06-14T08:17:03.392Z,0
2017-06-14T08:18:16.429Z,0
2017-06-14T08:19:29.664Z,0
2017-06-14T08:20:42.199Z,0
2017-06-14T08:21:54.233Z,0
2017-06-14T08:23:06.768Z,0
2017-06-14T08:24:20.005Z,0
2017-06-14T08:25:31.941Z,0
2017-06-14T08:26:44.829Z,0
2017-06-14T08:27:57.229Z,0
2017-06-14T08:29:10.118Z,0
2017-06-14T08:30:22.716Z,0
2017-06-14T08:31:35.120Z,0
2017-06-14T08:32:48.014Z,0
2017-06-14T08:34:00.416Z,0
2017-06-14T08:35:13.315Z,0
2017-06-14T08:36:26.221Z,0
2017-06-14T08:37:39.106Z,0
2017-06-14T08:38:51.994Z,0
2017-06-14T08:40:04.892Z,0
2017-06-14T08:41:17.784Z,0
2017-06-14T08:42:30.189Z,0
2017-06-14T08:43:43.085Z,0
2017-06-14T08:44:55.978Z,0
2017-06-14T08:46:09.072Z,0
2017-06-14T08:47:21.472Z,0
2017-06-14T08:48:34.367Z,0
2017-06-14T08:49:47.258Z,0
2017-06-14T08:51:00.177Z,0
2017-06-14T08:52:13.084Z,0
2017-06-14T08:53:25.992Z,0
2017-06-14T08:54:38.396Z,0
2017-06-14T08:55:51.286Z,0
2017-06-14T08:57:03.682Z,0
2017-06-14T08:58:16.572Z,0
2017-06-14T08:59:29.460Z,0
2017-06-14T09:00:41.859Z,0
2017-06-14T09:01:54.265Z,0
2017-06-14T09:03:06.869Z,0
2017-06-14T09:04:19.279Z,0
2017-06-14T09:05:32.176Z,0
2017-06-14T09:06:45.066Z,0
2017-06-14T09:07:58.156Z,0
2017-06-14T09:09:11.047Z,0
2017-06-14T09:10:23.943Z,0
2017-06-14T09:11:36.837Z,0
2017-06-14T09:12:49.238Z,0
2017-06-14T09:14:02.338Z,0
2017-06-14T09:15:14.743Z,0
2017-06-14T09:16:27.637Z,0
2017-06-14T09:17:40.072Z,0
2017-06-14T09:18:52.961Z,0
2017-06-14T09:20:05.852Z,0
2017-06-14T09:21:18.746Z,0
2017-06-14T09:22:31.147Z,0
2017-06-14T09:23:44.041Z,0
2017-06-14T09:24:56.444Z,0
2017-06-14T09:26:09.338Z,0
2017-06-14T09:27:22.224Z,0
2017-06-14T09:28:35.117Z,0
2017-06-14T09:29:48.214Z,0
2017-06-14T09:31:01.116Z,0
2017-06-14T09:32:14.010Z,0
2017-06-14T09:33:26.412Z,0
2017-06-14T09:34:39.302Z,0
2017-06-14T09:35:52.193Z,0
2017-06-14T09:37:05.088Z,0
2017-06-14T09:38:17.986Z,0
2017-06-14T09:39:30.882Z,0
2017-06-14T09:40:43.483Z,0
2017-06-14T09:41:55.893Z,0
2017-06-14T09:43:08.794Z,0
2017-06-14T09:44:21.200Z,0
2017-06-14T09:45:34.094Z,0
2017-06-14T09:46:46.498Z,0
2017-06-14T09:47:59.391Z,0
2017-06-14T09:49:12.287Z,0
2017-06-14T09:50:25.179Z,0
2017-06-14T09:51:38.071Z,0
2017-06-14T09:52:50.959Z,0
2017-06-14T09:54:03.361Z,0
2017-06-14T09:55:16.254Z,0
2017-06-14T09:56:29.146Z,0
2017-06-14T09:57:42.041Z,0
2017-06-14T09:58:54.934Z,0
2017-06-14T10:00:07.340Z,0
2017-06-14T10:01:19.744Z,0
2017-06-14T10:02:32.633Z,0
2017-06-14T10:03:45.522Z,0
2017-06-14T10:04:58.411Z,0
2017-06-14T10:06:11.300Z,0
2017-06-14T10:07:24.192Z,0
2017-06-14T10:08:37.093Z,0
2017-06-14T10:09:49.985Z,0
2017-06-14T10:11:02.388Z,0
2017-06-14T10:12:14.791Z,0
2017-06-14T10:13:27.884Z,0
2017-06-14T10:14:40.774Z,0
2017-06-14T10:15:53.669Z,0
2017-06-14T10:17:06.072Z,0
2017-06-14T10:18:18.965Z,0
2017-06-14T10:19:32.060Z,0
2017-06-14T10:20:44.949Z,0
2017-06-14T10:21:57.841Z,0
2017-06-14T10:23:10.740Z,0
2017-06-14T10:24:22.857Z,0
2017-06-14T10:25:35.751Z,0
2017-06-14T10:26:48.641Z,0
2017-06-14T10:28:01.534Z,0
2017-06-14T10:29:14.441Z,5
2017-06-14T10:30:26.846Z,0
2017-06-14T10:31:39.739Z,0
2017-06-14T10:32:52.633Z,5
2017-06-14T10:34:05.036Z,5
2017-06-14T10:35:18.127Z,5
2017-06-14T10:36:31.017Z,5
2017-06-14T10:37:43.914Z,5
2017-06-14T10:38:55.851Z,5
2017-06-14T10:40:08.747Z,5
2017-06-14T10:41:21.838Z,5
2017-06-14T10:42:34.243Z,5
2017-06-14T10:43:47.137Z,5
2017-06-14T10:45:00.031Z,5
2017-06-14T10:46:12.146Z,5
2017-06-14T10:47:25.039Z,5
2017-06-14T10:48:37.441Z,5
2017-06-14T10:49:49.843Z,5
2017-06-14T10:51:02.737Z,5
2017-06-14T10:52:15.629Z,5
2017-06-14T10:53:28.523Z,5
2017-06-14T10:54:40.926Z,5
2017-06-14T10:55:53.835Z,5
2017-06-14T10:57:06.926Z,5
2017-06-14T10:58:19.835Z,5
2017-06-14T10:59:32.745Z,5
2017-06-14T11:00:45.659Z,5
2017-06-14T11:01:57.588Z,5
2017-06-14T11:03:10.704Z,5
2017-06-14T11:04:23.613Z,5
2017-06-14T11:05:36.522Z,5
2017-06-14T11:06:49.431Z,5
2017-06-14T11:08:02.053Z,5
2017-06-14T11:09:14.965Z,5
2017-06-14T11:10:27.880Z,5
2017-06-14T11:11:40.797Z,5
2017-06-14T11:12:53.714Z,5
2017-06-14T11:14:06.622Z,5
2017-06-14T11:15:19.568Z,5
2017-06-14T11:16:31.988Z,5
2017-06-14T11:17:44.897Z,5
2017-06-14T11:18:57.806Z,5
2017-06-14T11:20:10.721Z,5
2017-06-14T11:21:23.142Z,10
2017-06-14T11:22:36.054Z,10
2017-06-14T11:23:48.971Z,10
2017-06-14T11:25:01.891Z,10
2017-06-14T11:26:14.805Z,10
2017-06-14T11:27:27.716Z,10
2017-06-14T11:28:40.135Z,10
2017-06-14T11:29:53.049Z,10
2017-06-14T11:31:05.964Z,10
2017-06-14T11:32:18.387Z,15
2017-06-14T11:33:31.300Z,15
2017-06-14T11:34:44.217Z,15
2017-06-14T11:35:56.643Z,20
2017-06-14T11:37:09.554Z,25
2017-06-14T11:38:21.483Z,15
2017-06-14T11:39:34.398Z,20
2017-06-14T11:40:47.016Z,20
2017-06-14T11:41:59.438Z,20
2017-06-14T11:43:11.741Z,10
2017-06-14T11:44:24.034Z,10
2017-06-14T11:45:36.813Z,10
2017-06-14T11:46:49.621Z,10
2017-06-14T11:48:01.989Z,5
2017-06-14T11:49:14.850Z,10
2017-06-14T11:50:27.709Z,10
2017-06-14T11:51:40.767Z,10
2017-06-14T11:52:53.635Z,10
2017-06-14T11:54:06.492Z,10
2017-06-14T11:55:18.871Z,10
2017-06-14T11:56:31.743Z,10
2017-06-14T11:57:44.607Z,10
2017-06-14T11:58:56.985Z,10
2017-06-14T12:00:09.848Z,10
2017-06-14T12:01:22.221Z,10
2017-06-14T12:02:34.114Z,10
2017-06-14T12:03:46.974Z,15
2017-06-14T12:04:59.837Z,15
2017-06-14T12:06:12.696Z,20
2017-06-14T12:07:25.560Z,20
2017-06-14T12:08:37.986Z,45
2017-06-14T12:09:50.855Z,50
2017-06-14T12:11:03.719Z,20
2017-06-14T12:12:16.111Z,20
2017-06-14T12:13:28.492Z,20
2017-06-14T12:14:40.871Z,25
2017-06-14T12:15:53.734Z,25
2017-06-14T12:17:06.602Z,25
2017-06-14T12:18:19.471Z,20
2017-06-14T12:19:31.846Z,20
2017-06-14T12:20:44.710Z,20
2017-06-14T12:21:57.504Z,20
2017-06-14T12:23:09.329Z,20
2017-06-14T12:24:22.940Z,20
2017-06-14T12:25:35.718Z,40
2017-06-14T12:26:48.019Z,20
2017-06-14T12:28:00.924Z,20
2017-06-14T12:29:13.840Z,20
2017-06-14T12:30:26.953Z,20
2017-06-14T12:31:39.372Z,20
2017-06-14T12:32:52.288Z,15
2017-06-14T12:34:05.201Z,15
2017-06-14T12:35:16.841Z,15
2017-06-14T12:36:29.755Z,15
2017-06-14T12:37:42.671Z,15
2017-06-14T12:38:55.590Z,10
2017-06-14T12:40:08.501Z,10
2017-06-14T12:41:21.121Z,10
2017-06-14T12:42:33.561Z,10
2017-06-14T12:43:46.471Z,10
2017-06-14T12:44:58.897Z,15
2017-06-14T12:46:12.047Z,15
2017-06-14T12:47:24.956Z,15
2017-06-14T12:48:37.868Z,15
2017-06-14T12:49:50.288Z,15
2017-06-14T12:51:02.710Z,15
2017-06-14T12:52:15.336Z,15
2017-06-14T12:53:28.247Z,15
2017-06-14T12:54:40.733Z,20
2017-06-14T12:55:53.722Z,20
2017-06-14T12:57:06.216Z,20
2017-06-14T12:58:18.711Z,20
2017-06-14T12:59:31.206Z,20
2017-06-14T13:00:44.492Z,20
2017-06-14T13:01:57.492Z,20
2017-06-14T13:03:10.688Z,20
2017-06-14T13:04:24.502Z,20
2017-06-14T13:05:37.009Z,15
2017-06-14T13:06:49.999Z,15
2017-06-14T13:08:02.989Z,20
2017-06-14T13:09:15.983Z,20
2017-06-14T13:10:28.981Z,20
2017-06-14T13:11:41.478Z,20
2017-06-14T13:12:54.456Z,20
2017-06-14T13:14:07.633Z,20
2017-06-14T13:15:20.116Z,20
2017-06-14T13:16:33.096Z,20
2017-06-14T13:17:46.076Z,20
2017-06-14T13:18:59.055Z,20
2017-06-14T13:20:11.534Z,20
2017-06-14T13:21:24.511Z,20
2017-06-14T13:22:36.991Z,20
2017-06-14T13:23:49.477Z,20
2017-06-14T13:25:01.464Z,20
2017-06-14T13:26:14.448Z,20
2017-06-14T13:27:27.036Z,20
2017-06-14T13:28:40.035Z,20
2017-06-14T13:29:53.011Z,25
2017-06-14T13:31:05.491Z,25
2017-06-14T13:32:18.467Z,25
2017-06-14T13:33:31.449Z,25
2017-06-14T13:34:44.428Z,25
2017-06-14T13:35:56.912Z,25
2017-06-14T13:37:09.395Z,25
2017-06-14T13:38:22.374Z,30
2017-06-14T13:39:35.350Z,25
2017-06-14T13:40:47.835Z,35
2017-06-14T13:42:00.816Z,30
2017-06-14T13:43:13.993Z,30
2017-06-14T13:44:26.476Z,40
2017-06-14T13:45:39.449Z,45
2017-06-14T13:46:52.624Z,30
2017-06-14T13:48:05.608Z,35
2017-06-14T13:49:18.592Z,35
2017-06-14T13:50:31.084Z,35
2017-06-14T13:51:43.766Z,25
2017-06-14T13:52:56.743Z,20
2017-06-14T13:54:09.720Z,20
2017-06-14T13:55:22.897Z,20
2017-06-14T13:56:34.884Z,20
2017-06-14T13:57:47.862Z,20
2017-06-14T13:59:00.838Z,20
2017-06-14T14:01:39.776Z,15
2017-06-14T14:02:52.672Z,15
2017-06-14T14:04:05.567Z,15
2017-06-14T14:05:17.981Z,15
2017-06-14T14:06:30.884Z,15
2017-06-14T14:07:43.295Z,15
2017-06-14T14:08:55.699Z,15
2017-06-14T14:10:08.594Z,10
2017-06-14T14:11:21.001Z,10
2017-06-14T14:12:33.894Z,15
2017-06-14T14:13:46.788Z,10
2017-06-14T14:14:59.682Z,10
2017-06-14T14:16:12.087Z,10
2017-06-14T14:17:24.987Z,10
2017-06-14T14:18:37.402Z,10
2017-06-14T14:19:49.805Z,15
2017-06-14T14:21:02.713Z,15
2017-06-14T14:22:15.122Z,20
2017-06-14T14:23:27.529Z,20
2017-06-14T14:24:40.429Z,20
2017-06-14T14:25:53.329Z,20
2017-06-14T14:27:06.377Z,20
2017-06-14T14:28:19.280Z,20
2017-06-14T14:29:32.180Z,20
2017-06-14T14:30:44.587Z,20
2017-06-14T14:31:56.998Z,20
2017-06-14T14:33:09.895Z,20
2017-06-14T14:34:22.796Z,20
2017-06-14T14:35:35.760Z,20
2017-06-14T14:36:48.243Z,25
2017-06-14T14:38:00.925Z,25
2017-06-14T14:39:13.905Z,30
2017-06-14T14:40:26.388Z,45
2017-06-14T14:41:38.876Z,40
2017-06-14T14:42:51.458Z,30
2017-06-14T14:44:04.344Z,30
2017-06-14T14:45:16.720Z,30
2017-06-14T14:46:29.585Z,35
2017-06-14T14:47:41.966Z,30
2017-06-14T14:49:08.407Z,25
2017-06-14T14:50:21.280Z,25
2017-06-14T14:51:33.169Z,35
2017-06-14T14:52:45.541Z,30
2017-06-14T14:53:57.926Z,30
2017-06-14T14:55:10.795Z,30
2017-06-14T14:56:23.660Z,35
2017-06-14T14:57:35.549Z,35
2017-06-14T14:58:48.415Z,35
2017-06-14T15:00:01.326Z,30
2017-06-14T15:01:14.194Z,30
2017-06-14T15:02:27.065Z,25
2017-06-14T15:03:39.941Z,20
2017-06-14T15:04:52.812Z,20
2017-06-14T15:06:05.192Z,20
2017-06-14T15:07:17.569Z,15
2017-06-14T15:08:30.435Z,15
2017-06-14T15:09:43.234Z,15
2017-06-14T15:10:56.012Z,15
2017-06-14T15:12:08.800Z,15
2017-06-14T15:13:21.409Z,20
2017-06-14T15:14:34.245Z,20
2017-06-14T15:15:46.550Z,20
2017-06-14T15:16:59.331Z,20
2017-06-14T15:18:11.630Z,20
2017-06-14T15:19:24.416Z,20
2017-06-14T15:20:37.208Z,20
2017-06-14T15:21:49.987Z,20
2017-06-14T15:23:02.288Z,20
2017-06-14T15:24:15.071Z,25
2017-06-14T15:25:27.856Z,25
2017-06-14T15:26:40.649Z,25
2017-06-14T15:27:53.423Z,25
2017-06-14T15:29:05.967Z,25
2017-06-14T15:30:17.301Z,25
2017-06-14T15:31:30.092Z,25
2017-06-14T15:32:42.873Z,25
2017-06-14T15:33:55.649Z,25
2017-06-14T15:35:08.428Z,25
2017-06-14T15:36:21.205Z,25
2017-06-14T15:37:33.983Z,25
2017-06-14T15:38:46.277Z,25
2017-06-14T15:39:59.054Z,30
2017-06-14T15:41:11.829Z,30
2017-06-14T15:42:24.614Z,30
2017-06-14T15:43:37.398Z,35
2017-06-14T15:44:50.190Z,35
2017-06-14T15:46:02.970Z,30
2017-06-14T15:47:15.275Z,30
2017-06-14T15:48:27.567Z,30
2017-06-14T15:49:40.347Z,30
2017-06-14T15:50:53.382Z,35
2017-06-14T15:52:06.164Z,35
2017-06-14T15:53:18.457Z,35
2017-06-14T15:54:30.768Z,35
2017-06-14T15:55:43.548Z,35
2017-06-14T15:56:56.524Z,35
2017-06-14T15:58:09.301Z,35
2017-06-14T15:59:21.597Z,35
2017-06-14T16:00:34.375Z,40
2017-06-14T16:01:47.353Z,35
2017-06-14T16:03:00.128Z,35
2017-06-14T16:04:12.904Z,35
2017-06-14T16:05:25.686Z,40
2017-06-14T16:06:37.980Z,35
2017-06-14T16:07:50.757Z,35
2017-06-14T16:09:03.050Z,35
2017-06-14T16:10:15.829Z,35
2017-06-14T16:11:28.125Z,35
2017-06-14T16:12:40.735Z,35
2017-06-14T16:13:53.144Z,40
2017-06-14T16:15:05.557Z,35
2017-06-14T16:16:18.451Z,35
2017-06-14T16:17:31.356Z,35
2017-06-14T16:18:44.252Z,35
2017-06-14T16:19:57.159Z,35
2017-06-14T16:21:09.568Z,30
2017-06-14T16:22:22.466Z,30
2017-06-14T16:23:35.362Z,30
2017-06-14T16:24:48.267Z,25
2017-06-14T16:26:00.880Z,25
2017-06-14T16:27:13.786Z,25
2017-06-14T16:28:26.690Z,25
2017-06-14T16:29:39.587Z,25
2017-06-14T16:30:52.486Z,25
2017-06-14T16:32:05.382Z,25
2017-06-14T16:33:18.289Z,25
2017-06-14T16:34:31.186Z,25
2017-06-14T16:35:44.080Z,25
2017-06-14T16:36:56.982Z,25
2017-06-14T16:38:10.072Z,25
2017-06-14T16:39:22.968Z,25
2017-06-14T16:40:35.861Z,25
2017-06-14T16:41:48.273Z,25
2017-06-14T16:43:00.685Z,25
2017-06-14T16:44:13.583Z,25
2017-06-14T16:45:25.986Z,25
2017-06-14T16:46:38.882Z,25
2017-06-14T16:47:50.798Z,25
2017-06-14T16:49:02.758Z,25
2017-06-14T16:50:15.162Z,25
2017-06-14T16:51:28.060Z,25
2017-06-14T16:52:40.463Z,25
2017-06-14T16:53:53.556Z,25
2017-06-14T16:55:06.448Z,20
2017-06-14T16:56:18.863Z,20
2017-06-14T16:57:31.269Z,20
2017-06-14T16:58:44.163Z,20
2017-06-14T16:59:57.061Z,20
2017-06-14T17:01:09.468Z,20
2017-06-14T17:02:22.367Z,20
2017-06-14T17:03:35.259Z,20
2017-06-14T17:04:48.160Z,20
2017-06-14T17:06:01.860Z,20
2017-06-14T17:07:14.270Z,20
2017-06-14T17:08:27.163Z,20
2017-06-14T17:09:39.569Z,20
2017-06-14T17:10:52.459Z,20
2017-06-14T17:12:05.351Z,20
2017-06-14T17:13:18.259Z,20
2017-06-14T17:14:31.158Z,20
2017-06-14T17:15:43.570Z,20
2017-06-14T17:16:56.465Z,15
2017-06-14T17:18:09.364Z,15
2017-06-14T17:19:21.300Z,10
2017-06-14T17:20:34.198Z,15
2017-06-14T17:21:47.099Z,15
2017-06-14T17:22:59.997Z,10
2017-06-14T17:24:12.893Z,10
2017-06-14T17:25:25.313Z,15
2017-06-14T17:26:38.208Z,15
2017-06-14T17:27:51.101Z,15
2017-06-14T17:29:04.002Z,15
2017-06-14T17:30:16.899Z,15
2017-06-14T17:31:29.797Z,15
2017-06-14T17:32:42.844Z,15
2017-06-14T17:33:55.739Z,15
2017-06-14T17:35:08.643Z,15
2017-06-14T17:36:21.535Z,15
2017-06-14T17:37:34.685Z,10
2017-06-14T17:38:46.603Z,10
2017-06-14T17:39:59.499Z,15
2017-06-14T17:41:12.391Z,15
2017-06-14T17:42:25.483Z,15
2017-06-14T17:43:37.890Z,15
2017-06-14T17:44:50.319Z,15